Main page
METAR-TAF:

METAR-TAF

Airports :

Bandar Lengeh Airport

Bandar Lengeh, Iran

latitude: 26-35N, longitude: 054-50E, elevation: 14 m

Current weather observation

The report was made 2 hours and 57 minutes ago, at 21:00 UTC
Wind 8 kt from the North
Temperature 21°C
Humidity 69%
Pressure 1009 hPa
Visibility: 6000 m

METAR: OIBL 302100Z 36008KT 6000 NSC 21/15 Q1009

Time: 04:27 (23:57 UTC)


TAF: missing

Weather observations and forecasts of more than 4000 airports (METAR and TAF reports).

The available stations are represented by yellow and red dots on the map.

Hover mouse over dot to see the name of the station.

Then click to see weather observations and forecasts.

To change the map : click on the green buttons with a black cross to zoom in, on the green button with a dash to zoom out, or on the green arrows for adjacent maps.


METAR-TAF: